Time;durP1;ratioP1;P1;durP2;ratioP2;P2;SDS_P1;SDS_P2;PMS_P1;PMS_P2;Temp;Humidity;BMP_temperature;BMP_pressure;BME280_temperature;BME280_humidity;BME280_pressure;Samples;Min_cycle;Max_cycle;Signal;HPM_P1;HPM_P2
2023/01/05 00:01:04;;;;;;;0.90;0.77;;;11.80;99.90;;;;;;5033452;28;20489;-72
2023/01/05 00:03:30;;;;;;;1.20;0.73;;;11.70;99.90;;;;;;5032538;28;20241;-72
2023/01/05 00:06:10;;;;;;;1.00;0.60;;;11.60;99.90;;;;;;5032541;28;20448;-71
2023/01/05 00:08:35;;;;;;;0.70;0.60;;;11.60;99.90;;;;;;5012421;28;20420;-71
2023/01/05 00:22:33;;;;;;;0.70;0.60;;;11.60;99.90;;;;;;5052206;28;20477;-72
2023/01/05 00:25:05;;;;;;;0.70;0.50;;;11.70;99.90;;;;;;5051580;28;20459;-72
2023/01/05 00:27:31;;;;;;;1.17;0.60;;;11.80;99.90;;;;;;5050635;28;20930;-71
2023/01/05 00:29:57;;;;;;;0.73;0.50;;;11.70;99.90;;;;;;5052516;28;20773;-71
2023/01/05 00:32:23;;;;;;;1.10;0.70;;;11.70;99.90;;;;;;5052293;28;20412;-71
2023/01/05 00:34:49;;;;;;;0.80;0.50;;;11.80;99.90;;;;;;5052163;28;21017;-71
2023/01/05 00:37:15;;;;;;;1.10;0.60;;;11.80;99.90;;;;;;5051166;28;20177;-71
2023/01/05 00:39:41;;;;;;;0.70;0.50;;;11.90;99.90;;;;;;5051873;28;20417;-72
2023/01/05 00:42:06;;;;;;;0.90;0.57;;;11.90;99.90;;;;;;5050495;28;20444;-71
2023/01/05 00:44:32;;;;;;;0.83;0.60;;;11.90;99.90;;;;;;5051972;28;20174;-71
2023/01/05 00:46:58;;;;;;;0.90;0.70;;;11.90;99.90;;;;;;5052146;28;20676;-72
2023/01/05 00:49:23;;;;;;;0.70;0.53;;;11.90;99.90;;;;;;5051568;28;20159;-73
2023/01/05 00:51:49;;;;;;;3.17;0.60;;;12.00;99.90;;;;;;5051732;28;20167;-72
2023/01/05 00:54:14;;;;;;;0.90;0.50;;;12.10;99.90;;;;;;5051792;28;20242;-72
2023/01/05 00:56:40;;;;;;;0.90;0.53;;;12.10;99.90;;;;;;5051428;28;20183;-72
2023/01/05 00:59:05;;;;;;;0.70;0.50;;;12.00;99.90;;;;;;5052056;28;20197;-72
2023/01/05 01:01:31;;;;;;;0.90;0.60;;;12.00;99.90;;;;;;5051514;28;20167;-72
2023/01/05 01:03:56;;;;;;;0.80;0.50;;;12.00;99.90;;;;;;5051380;28;20167;-72
2023/01/05 01:06:22;;;;;;;0.70;0.40;;;12.00;99.90;;;;;;5051383;28;20220;-70
2023/01/05 01:08:48;;;;;;;1.10;0.50;;;12.00;99.90;;;;;;5051673;28;20165;-72
2023/01/05 01:11:15;;;;;;;0.80;0.50;;;12.00;99.90;;;;;;5049899;28;20479;-72
2023/01/05 01:13:41;;;;;;;0.77;0.57;;;12.00;99.90;;;;;;5051553;28;20240;-72
2023/01/05 01:16:09;;;;;;;1.47;0.43;;;12.00;99.90;;;;;;5054151;28;20527;-72
2023/01/05 01:18:35;;;;;;;0.60;0.40;;;12.00;99.90;;;;;;5038596;28;20411;-72
2023/01/05 01:21:01;;;;;;;0.80;0.50;;;12.00;99.90;;;;;;5035919;28;20977;-72
2023/01/05 01:23:26;;;;;;;0.70;0.50;;;12.00;99.90;;;;;;5035647;28;20170;-72
2023/01/05 01:25:52;;;;;;;0.73;0.50;;;12.00;99.90;;;;;;5035294;28;20988;-71
2023/01/05 01:28:18;;;;;;;1.00;0.50;;;12.20;99.90;;;;;;5035734;28;20171;-72
2023/01/05 01:30:43;;;;;;;0.60;0.40;;;12.20;99.90;;;;;;5035523;28;20247;-72
2023/01/05 01:33:09;;;;;;;0.70;0.50;;;12.20;99.90;;;;;;5035725;28;20229;-72
2023/01/05 01:35:37;;;;;;;0.70;0.50;;;12.20;99.90;;;;;;5035531;28;20558;-72
2023/01/05 01:38:03;;;;;;;0.80;0.40;;;12.20;99.90;;;;;;5033502;28;20221;-73
2023/01/05 01:40:29;;;;;;;0.80;0.50;;;12.20;99.90;;;;;;5048778;28;20527;-72
2023/01/05 01:42:54;;;;;;;1.00;0.77;;;12.10;99.90;;;;;;5055847;28;20845;-72
2023/01/05 01:45:23;;;;;;;0.70;0.50;;;12.00;99.90;;;;;;5053615;28;20270;-71
2023/01/05 01:47:59;;;;;;;0.80;0.40;;;12.10;99.90;;;;;;5055213;28;20159;-71
2023/01/05 01:50:35;;;;;;;0.80;0.40;;;12.10;99.90;;;;;;5055296;28;20382;-72
2023/01/05 01:53:24;;;;;;;0.60;0.40;;;12.00;99.90;;;;;;5053915;28;20437;-72
2023/01/05 01:55:50;;;;;;;0.70;0.50;;;12.10;99.90;;;;;;5054834;28;20522;-73
2023/01/05 01:58:18;;;;;;;0.70;0.50;;;12.10;99.90;;;;;;5053574;28;20457;-72
2023/01/05 02:00:45;;;;;;;0.60;0.40;;;12.20;99.90;;;;;;5055712;28;20775;-72
2023/01/05 02:03:11;;;;;;;0.80;0.50;;;12.10;99.90;;;;;;5054962;28;20405;-72
2023/01/05 02:05:37;;;;;;;0.90;0.60;;;12.00;99.90;;;;;;5053520;28;20825;-72
2023/01/05 02:08:09;;;;;;;0.70;0.50;;;12.10;99.90;;;;;;5052631;28;20417;-72
2023/01/05 02:10:43;;;;;;;0.80;0.50;;;12.20;99.90;;;;;;5052703;28;20426;-72
2023/01/05 02:13:42;;;;;;;0.80;0.50;;;12.10;99.90;;;;;;5054437;28;20394;-72
2023/01/05 02:16:26;;;;;;;0.90;0.40;;;12.00;99.90;;;;;;5052668;28;20535;-71
2023/01/05 02:19:23;;;;;;;1.87;0.50;;;12.10;99.90;;;;;;5054491;28;20777;-71
2023/01/05 02:22:07;;;;;;;0.73;0.50;;;12.00;99.90;;;;;;5040194;28;20417;-72
2023/01/05 02:25:03;;;;;;;0.60;0.40;;;12.20;99.90;;;;;;5054215;28;20462;-72
2023/01/05 02:27:46;;;;;;;1.17;0.40;;;12.20;99.90;;;;;;5053514;28;20406;-71
2023/01/05 02:30:40;;;;;;;0.60;0.40;;;12.20;99.90;;;;;;5053582;28;20831;-72
2023/01/05 02:33:25;;;;;;;0.70;0.40;;;12.20;99.90;;;;;;5055004;28;20785;-71
2023/01/05 02:35:57;;;;;;;0.70;0.43;;;12.20;99.90;;;;;;5052480;28;20438;-71
2023/01/05 02:38:37;;;;;;;0.60;0.40;;;12.40;99.90;;;;;;5054081;28;20379;-71
2023/01/05 02:41:21;;;;;;;0.60;0.40;;;12.50;99.90;;;;;;5054083;28;20751;-72
2023/01/05 02:43:46;;;;;;;0.70;0.40;;;12.40;99.90;;;;;;5052665;28;20927;-72
2023/01/05 02:46:12;;;;;;;0.70;0.50;;;12.30;99.90;;;;;;5053504;28;20480;-72
2023/01/05 02:48:40;;;;;;;0.70;0.40;;;12.20;99.90;;;;;;5053780;28;20192;-72
2023/01/05 02:51:15;;;;;;;0.60;0.40;;;12.40;99.90;;;;;;5053543;28;20249;-72
2023/01/05 02:53:46;;;;;;;0.70;0.40;;;12.40;99.90;;;;;;5052262;28;20420;-71
2023/01/05 02:56:19;;;;;;;0.70;0.40;;;12.40;99.90;;;;;;5053860;28;20426;-71
2023/01/05 02:58:56;;;;;;;0.60;0.40;;;12.50;99.90;;;;;;5053613;28;20945;-71
2023/01/05 03:01:30;;;;;;;0.60;0.40;;;12.50;99.90;;;;;;5052412;28;20412;-71
2023/01/05 03:04:00;;;;;;;0.70;0.50;;;12.50;99.90;;;;;;5053477;28;20385;-72
2023/01/05 03:06:45;;;;;;;0.70;0.50;;;12.40;99.90;;;;;;5053142;28;20491;-72
2023/01/05 03:09:14;;;;;;;0.90;0.40;;;12.40;99.90;;;;;;5053540;28;20396;-71
2023/01/05 03:14:43;;;;;;;0.60;0.40;;;12.40;99.90;;;;;;5053827;28;20391;-70
2023/01/05 03:17:13;;;;;;;0.70;0.40;;;12.40;99.90;;;;;;5053613;28;20389;-72
2023/01/05 03:19:42;;;;;;;0.60;0.40;;;12.40;99.90;;;;;;5052722;28;20887;-72
2023/01/05 03:36:58;;;;;;;0.80;0.43;;;12.50;99.90;;;;;;5044391;28;20817;-71
2023/01/05 03:39:26;;;;;;;0.70;0.40;;;12.60;99.90;;;;;;5052367;28;20398;-72
2023/01/05 03:41:53;;;;;;;0.60;0.40;;;12.70;99.90;;;;;;5049417;28;20421;-73
2023/01/05 03:44:19;;;;;;;0.70;0.47;;;12.70;99.90;;;;;;5032449;28;20772;-72
2023/01/05 03:46:44;;;;;;;0.60;0.40;;;12.50;99.90;;;;;;5033145;28;20454;-71
2023/01/05 03:49:10;;;;;;;0.70;0.40;;;12.60;99.90;;;;;;5032658;28;20415;-71
2023/01/05 03:51:36;;;;;;;3.60;0.40;;;12.60;99.90;;;;;;5032467;28;20169;-71
2023/01/05 03:54:02;;;;;;;0.60;0.40;;;12.40;99.90;;;;;;5032886;28;20421;-72
2023/01/05 03:56:27;;;;;;;0.60;0.40;;;12.40;99.90;;;;;;5032551;28;20241;-71
2023/01/05 03:58:53;;;;;;;0.70;0.40;;;12.60;99.90;;;;;;5030082;28;20182;-71
2023/01/05 04:01:18;;;;;;;0.60;0.33;;;12.70;99.90;;;;;;5032551;28;20175;-72
2023/01/05 04:03:44;;;;;;;0.60;0.40;;;12.60;99.90;;;;;;5032716;28;20241;-72
2023/01/05 04:06:09;;;;;;;0.60;0.40;;;12.60;99.90;;;;;;5048513;28;20249;-71
2023/01/05 04:08:35;;;;;;;0.80;0.43;;;12.70;99.90;;;;;;5053008;28;20169;-71
2023/01/05 04:11:18;;;;;;;0.90;0.50;;;13.00;99.90;;;;;;5052596;28;20523;-71
2023/01/05 04:13:44;;;;;;;1.43;0.50;;;12.90;99.90;;;;;;5052745;28;20157;-71
2023/01/05 04:16:09;;;;;;;0.60;0.40;;;13.00;99.90;;;;;;5052403;28;20463;-71
2023/01/05 04:18:35;;;;;;;0.70;0.40;;;13.00;99.90;;;;;;5050785;28;20492;-71
2023/01/05 04:21:01;;;;;;;0.70;0.50;;;13.10;99.90;;;;;;5051106;28;20517;-72
2023/01/05 04:23:26;;;;;;;0.80;0.47;;;13.10;99.90;;;;;;5052220;28;20182;-71
2023/01/05 04:25:52;;;;;;;0.70;0.43;;;12.80;99.90;;;;;;5072925;22;20286;-70
2023/01/05 04:28:18;;;;;;;2.00;0.40;;;12.80;99.90;;;;;;5067121;28;20170;-69
2023/01/05 04:30:44;;;;;;;0.60;0.40;;;13.00;99.90;;;;;;5066157;28;20173;-70
2023/01/05 04:33:10;;;;;;;0.60;0.40;;;13.00;99.90;;;;;;5059697;28;20188;-69
2023/01/05 04:35:35;;;;;;;0.60;0.40;;;13.00;99.90;;;;;;5052847;28;20424;-69
2023/01/05 04:38:01;;;;;;;0.60;0.40;;;13.00;99.90;;;;;;5051068;28;20427;-69
2023/01/05 04:40:26;;;;;;;0.70;0.40;;;13.00;99.90;;;;;;5053224;28;20306;-69
2023/01/05 04:42:52;;;;;;;0.70;0.40;;;12.80;99.90;;;;;;5053110;28;20177;-69
2023/01/05 04:45:18;;;;;;;0.70;0.40;;;12.90;99.90;;;;;;5052972;28;20203;-67
2023/01/05 04:47:43;;;;;;;0.80;0.50;;;12.90;99.90;;;;;;5053035;28;20522;-69
2023/01/05 04:50:09;;;;;;;1.00;0.50;;;13.00;99.90;;;;;;5053719;28;20621;-69
2023/01/05 04:52:35;;;;;;;0.83;0.40;;;13.00;99.90;;;;;;5054881;28;20243;-69
2023/01/05 04:55:00;;;;;;;0.70;0.40;;;12.90;99.90;;;;;;5055091;28;20421;-69
2023/01/05 04:57:26;;;;;;;0.70;0.40;;;12.70;99.90;;;;;;5056698;28;20529;-69
2023/01/05 04:59:52;;;;;;;0.60;0.40;;;12.80;99.90;;;;;;5056650;28;20176;-69
2023/01/05 05:02:17;;;;;;;0.70;0.30;;;12.80;99.90;;;;;;5056137;28;20183;-69
2023/01/05 05:04:43;;;;;;;0.77;0.40;;;12.70;99.90;;;;;;5054153;28;20180;-69
2023/01/05 05:07:08;;;;;;;0.60;0.40;;;12.80;99.90;;;;;;5056050;28;20197;-70
2023/01/05 05:09:34;;;;;;;0.70;0.40;;;12.80;99.90;;;;;;5055029;28;20627;-70
2023/01/05 05:11:59;;;;;;;0.70;0.50;;;12.80;99.90;;;;;;5056376;28;20167;-69
2023/01/05 05:14:25;;;;;;;0.70;0.40;;;12.90;99.90;;;;;;5055768;28;20178;-69
2023/01/05 05:16:50;;;;;;;0.70;0.50;;;12.80;99.90;;;;;;5056677;28;20214;-69
2023/01/05 05:19:16;;;;;;;1.50;0.40;;;12.80;99.90;;;;;;5054939;28;20548;-69
2023/01/05 05:21:41;;;;;;;0.70;0.40;;;12.80;99.90;;;;;;5055837;28;20209;-70
2023/01/05 05:24:07;;;;;;;0.87;0.40;;;12.90;99.90;;;;;;5055715;28;20638;-69
2023/01/05 05:26:33;;;;;;;0.90;0.60;;;13.00;99.90;;;;;;5048394;28;20286;-70
2023/01/05 05:28:58;;;;;;;0.70;0.40;;;13.00;99.90;;;;;;5054730;28;20225;-69
2023/01/05 05:31:24;;;;;;;0.80;0.50;;;12.90;99.90;;;;;;5055815;28;20655;-69
2023/01/05 05:33:50;;;;;;;0.67;0.50;;;12.90;99.90;;;;;;5056183;28;20179;-69
2023/01/05 05:36:16;;;;;;;0.70;0.40;;;12.90;99.90;;;;;;5056022;28;20510;-69
2023/01/05 05:38:42;;;;;;;0.90;0.50;;;12.80;99.90;;;;;;5055431;28;20178;-69
2023/01/05 05:41:08;;;;;;;0.80;0.60;;;12.70;99.90;;;;;;5055713;28;20880;-69
2023/01/05 05:43:33;;;;;;;1.50;1.10;;;12.80;99.90;;;;;;5055630;28;20424;-69
2023/01/05 05:45:59;;;;;;;1.00;0.47;;;12.90;99.90;;;;;;5037032;28;20736;-69
2023/01/05 05:48:25;;;;;;;0.90;0.50;;;12.90;99.90;;;;;;5035902;28;20169;-69
2023/01/05 05:50:50;;;;;;;1.33;0.57;;;12.60;99.90;;;;;;5035244;28;20244;-70
2023/01/05 05:53:16;;;;;;;1.53;0.50;;;12.70;99.90;;;;;;5035158;28;20177;-70
2023/01/05 05:55:41;;;;;;;0.87;0.50;;;12.60;99.90;;;;;;5035822;28;20190;-70
2023/01/05 05:58:07;;;;;;;1.93;0.60;;;12.50;99.90;;;;;;5035483;28;20201;-70
2023/01/05 06:00:33;;;;;;;0.70;0.50;;;12.30;99.90;;;;;;5027436;28;20267;-70
2023/01/05 06:02:59;;;;;;;0.90;0.50;;;12.10;99.90;;;;;;5025877;28;20511;-71
2023/01/05 06:05:24;;;;;;;0.80;0.50;;;12.00;99.90;;;;;;5026375;28;20214;-70
2023/01/05 06:07:50;;;;;;;0.67;0.43;;;12.00;99.90;;;;;;5025622;28;20188;-72
2023/01/05 06:10:16;;;;;;;0.80;0.50;;;12.00;99.90;;;;;;5025071;28;20562;-70
2023/01/05 06:12:41;;;;;;;0.80;0.40;;;11.80;99.90;;;;;;5025964;28;20181;-72
2023/01/05 06:15:07;;;;;;;0.80;0.47;;;11.70;99.90;;;;;;5025890;28;20634;-71
2023/01/05 06:17:33;;;;;;;0.83;0.50;;;11.60;99.90;;;;;;5026020;28;20189;-70
2023/01/05 06:19:58;;;;;;;1.47;0.50;;;11.50;99.90;;;;;;5025927;28;20425;-70
2023/01/05 06:22:24;;;;;;;0.80;0.73;;;11.50;99.90;;;;;;5025403;28;20209;-70
2023/01/05 06:24:49;;;;;;;0.80;0.60;;;11.50;99.90;;;;;;5024010;28;20247;-70
2023/01/05 06:27:15;;;;;;;0.70;0.50;;;11.40;99.90;;;;;;5024681;28;20689;-70
2023/01/05 06:29:41;;;;;;;0.70;0.50;;;11.30;99.90;;;;;;5025788;28;20189;-72
2023/01/05 06:32:06;;;;;;;0.80;0.60;;;11.30;99.90;;;;;;5025866;28;20180;-69
2023/01/05 06:34:32;;;;;;;1.87;0.60;;;11.20;99.90;;;;;;5025750;28;20186;-71
2023/01/05 06:36:57;;;;;;;0.70;0.60;;;11.20;99.90;;;;;;5025501;28;20234;-70
2023/01/05 06:39:23;;;;;;;1.47;0.70;;;11.20;99.90;;;;;;5025741;28;20181;-70
2023/01/05 06:41:48;;;;;;;1.13;0.60;;;11.30;99.90;;;;;;5025764;28;20185;-70
2023/01/05 06:44:14;;;;;;;3.87;0.80;;;11.30;99.90;;;;;;5026252;28;20263;-71
2023/01/05 06:46:39;;;;;;;1.10;0.50;;;11.40;99.90;;;;;;5025503;28;20334;-71
2023/01/05 06:49:05;;;;;;;0.80;0.50;;;11.40;99.90;;;;;;5025837;28;20280;-70
2023/01/05 06:51:31;;;;;;;0.80;0.50;;;11.40;99.90;;;;;;5025374;28;20270;-71
2023/01/05 06:53:56;;;;;;;1.00;0.60;;;11.50;99.90;;;;;;5025195;28;20176;-70
2023/01/05 06:56:22;;;;;;;1.37;0.60;;;11.50;99.90;;;;;;5025486;28;20208;-72
2023/01/05 06:58:47;;;;;;;1.23;0.80;;;11.50;99.90;;;;;;5025707;28;20222;-70
2023/01/05 07:01:13;;;;;;;1.00;0.90;;;11.60;99.90;;;;;;5024126;28;20231;-71
2023/01/05 07:03:38;;;;;;;1.30;0.80;;;11.70;99.90;;;;;;5025109;28;20236;-70
2023/01/05 07:06:04;;;;;;;9.00;8.10;;;11.70;99.90;;;;;;5025258;28;20216;-70
2023/01/05 07:08:30;;;;;;;21.07;16.60;;;11.60;99.90;;;;;;5032407;28;20231;-70
2023/01/05 07:10:55;;;;;;;70.60;49.80;;;11.60;99.90;;;;;;5053128;28;20522;-69
2023/01/05 07:13:21;;;;;;;16.00;11.07;;;11.60;99.90;;;;;;5053642;28;20253;-69
2023/01/05 07:15:46;;;;;;;3.47;2.73;;;11.70;99.90;;;;;;5052515;28;20191;-69
2023/01/05 07:18:12;;;;;;;35.10;25.57;;;11.60;99.90;;;;;;5052567;28;20517;-70
2023/01/05 07:20:37;;;;;;;63.30;42.37;;;11.70;99.90;;;;;;5053405;28;20650;-69
2023/01/05 07:23:03;;;;;;;76.97;53.73;;;11.60;99.90;;;;;;5053642;28;20267;-69
2023/01/05 07:25:30;;;;;;;35.47;24.60;;;11.70;99.90;;;;;;5053247;28;20219;-69
2023/01/05 07:27:56;;;;;;;72.67;44.10;;;11.70;99.90;;;;;;5052338;28;20186;-69
2023/01/05 07:30:23;;;;;;;4.37;1.60;;;11.60;99.90;;;;;;5039092;28;20413;-69
2023/01/05 07:32:48;;;;;;;5.23;3.43;;;11.60;99.90;;;;;;5033551;28;20438;-69
2023/01/05 07:35:14;;;;;;;2.93;1.73;;;11.70;99.90;;;;;;5033311;28;20449;-69
2023/01/05 07:37:39;;;;;;;2.60;1.23;;;11.70;99.90;;;;;;5033457;28;20634;-69
2023/01/05 07:40:05;;;;;;;5.27;1.40;;;11.70;99.90;;;;;;5033429;28;20175;-69
2023/01/05 07:42:32;;;;;;;5.30;2.97;;;11.70;99.90;;;;;;5033576;28;20169;-69
2023/01/05 07:44:57;;;;;;;4.80;3.93;;;11.70;99.90;;;;;;5033600;28;20497;-69
2023/01/05 07:47:23;;;;;;;2.93;1.03;;;11.70;99.90;;;;;;5032948;28;20794;-70
2023/01/05 07:49:48;;;;;;;4.10;1.70;;;11.80;99.90;;;;;;5033823;28;20662;-69
2023/01/05 07:52:14;;;;;;;3.93;1.40;;;11.90;99.90;;;;;;5033239;28;20164;-69
2023/01/05 07:54:39;;;;;;;6.80;1.50;;;11.90;99.90;;;;;;5033218;28;20176;-69
2023/01/05 07:57:05;;;;;;;5.83;1.30;;;11.90;99.90;;;;;;5033032;28;20186;-69
2023/01/05 07:59:31;;;;;;;2.87;1.47;;;11.90;99.90;;;;;;5033190;28;20222;-69
2023/01/05 08:01:57;;;;;;;3.83;1.50;;;11.90;99.90;;;;;;5032127;28;20234;-69
2023/01/05 08:04:23;;;;;;;3.53;1.43;;;11.90;99.90;;;;;;5033132;28;20169;-70
2023/01/05 08:06:48;;;;;;;2.20;1.53;;;11.90;99.90;;;;;;5032839;28;20465;-68
2023/01/05 08:11:58;;;;;;;7.13;1.73;;;11.80;99.90;;;;;;5053442;28;20166;-70
2023/01/05 08:14:24;;;;;;;4.40;2.20;;;11.90;99.90;;;;;;5052666;28;20405;-70
2023/01/05 08:16:50;;;;;;;3.97;1.43;;;11.90;99.90;;;;;;5051293;28;20191;-69
2023/01/05 08:19:15;;;;;;;3.80;1.60;;;11.90;99.90;;;;;;5052666;28;20568;-70
2023/01/05 08:21:41;;;;;;;3.17;1.80;;;11.90;99.90;;;;;;5051345;28;20178;-68
2023/01/05 08:24:07;;;;;;;3.60;1.30;;;11.90;99.90;;;;;;5052599;28;20252;-69
2023/01/05 08:26:32;;;;;;;2.17;1.60;;;11.90;99.90;;;;;;5054523;28;20561;-67
2023/01/05 08:28:58;;;;;;;3.30;1.70;;;12.00;99.90;;;;;;5056650;28;20412;-68
2023/01/05 08:31:27;;;;;;;4.10;1.63;;;12.10;99.90;;;;;;5056686;28;20176;-69
2023/01/05 08:34:00;;;;;;;4.60;1.80;;;12.10;99.90;;;;;;5057239;28;20175;-68
2023/01/05 08:36:26;;;;;;;2.90;1.60;;;12.10;99.90;;;;;;5057567;28;20430;-69
2023/01/05 08:38:52;;;;;;;3.80;2.00;;;12.10;99.90;;;;;;5056799;28;20405;-69
2023/01/05 08:41:34;;;;;;;3.80;1.40;;;12.20;99.90;;;;;;5056685;28;20216;-71
2023/01/05 08:44:01;;;;;;;4.73;1.70;;;12.20;99.90;;;;;;5057284;28;20896;-69
2023/01/05 08:46:31;;;;;;;2.60;1.60;;;12.20;99.90;;;;;;5056372;28;20486;-70
2023/01/05 08:48:59;;;;;;;3.67;1.87;;;12.30;99.90;;;;;;5052761;28;20453;-70
2023/01/05 08:51:24;;;;;;;3.80;2.80;;;12.40;99.90;;;;;;5036916;28;20456;-71
2023/01/05 08:53:50;;;;;;;4.43;2.27;;;12.40;99.90;;;;;;5036325;28;20804;-71
2023/01/05 08:56:16;;;;;;;4.80;1.57;;;12.40;99.90;;;;;;5039260;28;20203;-70
2023/01/05 08:58:42;;;;;;;3.30;1.50;;;12.20;99.90;;;;;;5036613;28;20626;-69
2023/01/05 09:01:09;;;;;;;10.00;2.30;;;12.20;99.90;;;;;;5036293;28;20176;-70
2023/01/05 09:03:36;;;;;;;4.23;1.43;;;12.30;99.90;;;;;;5036524;28;20169;-71
2023/01/05 09:06:03;;;;;;;2.30;1.60;;;12.20;99.90;;;;;;5034694;28;20463;-70
2023/01/05 09:08:30;;;;;;;9.20;2.43;;;12.20;99.90;;;;;;5036599;28;20409;-71
2023/01/05 09:11:04;;;;;;;3.57;1.70;;;12.20;99.90;;;;;;5055889;28;20405;-70
2023/01/05 09:13:29;;;;;;;4.43;1.77;;;12.20;99.90;;;;;;5054987;28;20458;-69
2023/01/05 09:15:55;;;;;;;4.43;2.10;;;12.20;99.90;;;;;;5056091;28;20933;-68
2023/01/05 09:18:20;;;;;;;3.37;1.80;;;12.20;99.90;;;;;;5056189;28;20636;-69
2023/01/05 09:20:54;;;;;;;6.03;1.87;;;12.10;99.90;;;;;;5056183;28;20250;-72
2023/01/05 09:23:20;;;;;;;9.93;2.30;;;12.20;99.90;;;;;;5035303;28;20175;-75
2023/01/05 09:25:45;;;;;;;9.10;2.67;;;12.20;99.90;;;;;;5055934;28;20535;-70
2023/01/05 09:28:11;;;;;;;6.50;2.17;;;12.10;99.90;;;;;;5056173;28;20624;-69
2023/01/05 09:30:36;;;;;;;6.57;2.93;;;12.10;99.90;;;;;;5056128;28;20183;-71
2023/01/05 09:33:02;;;;;;;4.50;2.13;;;12.20;99.90;;;;;;5053327;28;20163;-72
2023/01/05 09:35:28;;;;;;;10.17;2.37;;;12.20;99.90;;;;;;5055937;28;20569;-70
2023/01/05 09:37:53;;;;;;;9.97;3.07;;;12.10;99.90;;;;;;5055679;28;20170;-69
2023/01/05 09:40:19;;;;;;;7.60;2.40;;;12.10;99.90;;;;;;5055354;28;20175;-69
2023/01/05 09:42:45;;;;;;;6.73;2.40;;;12.10;99.90;;;;;;5055472;28;20172;-70
2023/01/05 09:45:14;;;;;;;5.63;2.57;;;12.00;99.90;;;;;;5055287;28;20454;-69
2023/01/05 09:47:45;;;;;;;6.10;3.00;;;12.10;99.90;;;;;;5055752;28;20766;-69
2023/01/05 09:50:26;;;;;;;5.37;2.97;;;12.00;99.90;;;;;;5053962;28;20486;-71
2023/01/05 09:52:56;;;;;;;10.27;2.60;;;12.10;99.90;;;;;;5034698;28;20400;-69
2023/01/05 09:55:24;;;;;;;5.97;2.70;;;12.20;99.90;;;;;;5035395;28;20498;-69
2023/01/05 09:58:05;;;;;;;11.17;3.10;;;12.20;99.90;;;;;;5035226;28;20406;-68
2023/01/05 10:00:32;;;;;;;6.97;2.77;;;12.30;99.90;;;;;;5033830;28;20781;-69
2023/01/05 10:03:18;;;;;;;7.70;2.50;;;12.20;99.90;;;;;;5040802;28;20423;-69
2023/01/05 10:05:46;;;;;;;8.80;2.30;;;12.30;99.90;;;;;;5053759;28;20488;-69
2023/01/05 10:08:23;;;;;;;11.90;3.37;;;12.40;99.90;;;;;;5053748;28;20412;-69
2023/01/05 10:13:50;;;;;;;6.97;2.60;;;12.40;99.90;;;;;;5055331;28;20377;-69
2023/01/05 10:16:16;;;;;;;13.73;3.03;;;12.40;99.90;;;;;;5053824;28;20465;-71
2023/01/05 10:18:42;;;;;;;15.43;3.17;;;12.40;99.90;;;;;;5053432;28;20447;-70
2023/01/05 10:21:19;;;;;;;12.23;2.73;;;12.60;99.90;;;;;;5054909;28;20441;-70
2023/01/05 10:23:47;;;;;;;8.90;2.50;;;12.60;99.90;;;;;;5053491;28;20399;-70
2023/01/05 10:26:15;;;;;;;9.97;3.00;;;12.50;99.90;;;;;;5080128;22;20496;-70
2023/01/05 10:28:49;;;;;;;8.03;2.70;;;12.40;99.90;;;;;;5053951;28;20397;-71
2023/01/05 10:31:33;;;;;;;10.93;2.40;;;12.50;99.90;;;;;;5052527;28;20409;-70
2023/01/05 10:34:18;;;;;;;5.93;2.27;;;12.50;99.90;;;;;;5054026;28;20399;-69
2023/01/05 10:36:58;;;;;;;9.40;2.60;;;12.50;99.90;;;;;;5052689;28;20431;-70
2023/01/05 10:39:56;;;;;;;8.47;2.40;;;12.60;99.90;;;;;;5053964;28;20403;-70
2023/01/05 10:42:36;;;;;;;10.17;2.70;;;12.60;99.90;;;;;;5053948;28;20427;-70
2023/01/05 10:45:03;;;;;;;7.50;2.60;;;12.60;99.90;;;;;;5054363;28;20479;-71
2023/01/05 10:47:31;;;;;;;8.97;2.77;;;12.80;99.90;;;;;;5051625;28;20432;-71
2023/01/05 10:49:58;;;;;;;7.83;2.83;;;12.70;99.90;;;;;;5053848;28;20418;-71
2023/01/05 10:52:23;;;;;;;13.13;2.60;;;12.70;99.90;;;;;;5053811;28;20396;-70
2023/01/05 10:55:00;;;;;;;6.80;2.50;;;12.80;99.90;;;;;;5051989;28;20478;-70
2023/01/05 10:57:30;;;;;;;7.03;2.60;;;12.80;99.90;;;;;;5053629;28;20218;-70
2023/01/05 10:59:59;;;;;;;7.20;2.10;;;12.90;99.90;;;;;;5053536;28;20441;-70
2023/01/05 11:02:28;;;;;;;5.53;3.00;;;13.00;99.90;;;;;;5053405;28;20424;-69
2023/01/05 11:05:02;;;;;;;8.87;2.97;;;13.00;99.90;;;;;;5053197;28;20411;-70
2023/01/05 11:07:27;;;;;;;5.00;2.37;;;13.00;99.90;;;;;;5053502;28;21052;-70
2023/01/05 11:09:53;;;;;;;5.53;2.33;;;13.00;99.90;;;;;;5051676;28;20414;-70
2023/01/05 11:12:21;;;;;;;9.63;2.97;;;13.00;99.90;;;;;;5052872;28;20530;-73
2023/01/05 11:14:50;;;;;;;5.73;2.20;;;13.00;99.90;;;;;;5052126;28;20838;-71
2023/01/05 11:17:20;;;;;;;5.17;2.53;;;12.80;99.90;;;;;;5053427;28;20453;-70
2023/01/05 11:19:49;;;;;;;10.47;2.73;;;12.80;99.90;;;;;;5053430;28;20420;-71
2023/01/05 11:22:34;;;;;;;7.80;2.70;;;12.80;99.90;;;;;;5043797;28;20402;-69
2023/01/05 11:25:32;;;;;;;6.70;2.47;;;12.80;99.90;;;;;;5013805;28;20403;-70
2023/01/05 11:28:13;;;;;;;9.77;2.93;;;12.90;99.90;;;;;;4979908;28;20429;-71
2023/01/05 11:30:57;;;;;;;9.53;3.60;;;12.80;99.90;;;;;;5022851;28;20416;-70
2023/01/05 11:33:27;;;;;;;8.13;2.63;;;12.90;99.90;;;;;;5052503;28;20388;-69
2023/01/05 11:35:53;;;;;;;6.00;2.23;;;12.90;99.90;;;;;;5052480;28;20421;-70
2023/01/05 11:38:25;;;;;;;12.20;3.07;;;13.00;99.90;;;;;;5052970;28;20441;-70
2023/01/05 11:40:51;;;;;;;8.30;3.00;;;12.90;99.90;;;;;;5053071;28;20401;-71
2023/01/05 11:43:19;;;;;;;6.13;2.50;;;13.00;99.90;;;;;;5052503;28;20466;-70
2023/01/05 11:45:50;;;;;;;11.80;3.00;;;12.90;99.90;;;;;;5052103;28;20460;-71
2023/01/05 11:48:26;;;;;;;9.67;3.77;;;12.90;99.90;;;;;;5052629;28;20561;-70
2023/01/05 11:50:55;;;;;;;10.60;3.53;;;13.00;99.90;;;;;;5052923;28;20370;-71
2023/01/05 11:53:32;;;;;;;14.97;2.77;;;13.00;99.90;;;;;;5052382;28;20413;-71
2023/01/05 11:56:22;;;;;;;8.80;2.73;;;13.10;99.90;;;;;;5049393;28;20420;-68
2023/01/05 11:58:49;;;;;;;9.90;2.87;;;13.10;99.90;;;;;;5034891;28;20996;-69
2023/01/05 12:01:36;;;;;;;11.83;2.90;;;13.00;99.90;;;;;;5051678;28;20410;-69
2023/01/05 12:04:22;;;;;;;8.63;2.23;;;13.00;99.90;;;;;;5052537;28;20386;-72
2023/01/05 12:07:00;;;;;;;10.43;3.57;;;12.90;99.90;;;;;;5052211;28;20455;-70
2023/01/05 12:09:57;;;;;;;7.80;2.40;;;12.80;99.90;;;;;;5050843;28;20408;-70
2023/01/05 12:12:50;;;;;;;8.97;2.90;;;12.80;99.90;;;;;;5052323;28;20381;-68
2023/01/05 12:15:33;;;;;;;8.10;3.20;;;12.90;99.90;;;;;;5052402;28;20423;-69
2023/01/05 12:18:23;;;;;;;10.97;2.80;;;13.00;99.90;;;;;;5052223;28;20404;-69
2023/01/05 12:21:15;;;;;;;12.73;3.60;;;13.10;99.90;;;;;;5052231;28;20389;-69
2023/01/05 12:23:56;;;;;;;14.57;3.73;;;13.20;99.90;;;;;;5051878;28;20420;-69
2023/01/05 12:26:42;;;;;;;13.17;3.97;;;13.10;99.90;;;;;;5051888;28;20467;-69
2023/01/05 12:29:22;;;;;;;6.23;2.67;;;13.20;99.90;;;;;;5052677;28;20746;-69
2023/01/05 12:32:06;;;;;;;9.30;2.60;;;13.10;99.90;;;;;;5052677;28;20758;-70
2023/01/05 12:34:56;;;;;;;5.90;2.77;;;13.00;99.90;;;;;;5052911;28;20391;-69
2023/01/05 12:37:35;;;;;;;10.00;2.70;;;13.00;99.90;;;;;;5052390;28;20930;-73
2023/01/05 12:40:30;;;;;;;10.77;3.40;;;13.00;99.90;;;;;;5052727;28;20429;-73
2023/01/05 12:42:59;;;;;;;7.87;2.57;;;13.10;99.90;;;;;;5050651;28;20413;-72
2023/01/05 12:45:31;;;;;;;7.23;2.73;;;13.10;99.90;;;;;;5051941;28;20447;-71
2023/01/05 12:48:04;;;;;;;10.57;3.97;;;13.00;99.90;;;;;;5052017;28;20407;-71
2023/01/05 12:50:42;;;;;;;11.40;3.37;;;12.90;99.90;;;;;;5052208;28;20399;-71
2023/01/05 12:53:34;;;;;;;10.40;3.23;;;13.00;99.90;;;;;;5051894;28;20384;-69
2023/01/05 12:56:41;;;;;;;8.43;2.70;;;13.10;99.90;;;;;;5051224;28;20424;-69
2023/01/05 12:59:23;;;;;;;8.83;3.20;;;13.20;99.90;;;;;;5051984;28;20388;-69
2023/01/05 13:02:25;;;;;;;9.23;2.90;;;13.30;99.90;;;;;;5052212;28;20708;-69
2023/01/05 13:05:14;;;;;;;6.17;2.70;;;13.30;99.90;;;;;;5049005;28;20423;-69
2023/01/05 13:08:24;;;;;;;10.07;2.90;;;13.10;99.90;;;;;;5051799;28;20437;-69
2023/01/05 13:11:06;;;;;;;7.73;2.80;;;13.10;99.90;;;;;;5049598;28;20412;-73
2023/01/05 13:13:43;;;;;;;10.93;2.60;;;13.20;99.90;;;;;;5055411;28;20496;-73
2023/01/05 13:16:18;;;;;;;9.10;3.00;;;13.30;99.90;;;;;;5055723;28;20418;-70
2023/01/05 13:19:23;;;;;;;15.63;3.57;;;13.10;99.90;;;;;;5045165;28;20805;-70
2023/01/05 13:21:51;;;;;;;8.40;2.93;;;13.10;99.90;;;;;;5034325;28;20417;-72
2023/01/05 13:24:37;;;;;;;9.90;3.37;;;13.20;99.90;;;;;;5038337;28;20428;-69
2023/01/05 13:27:03;;;;;;;11.43;3.73;;;13.20;99.90;;;;;;5054992;28;20658;-70
2023/01/05 13:29:31;;;;;;;8.70;2.70;;;13.30;99.90;;;;;;5055326;28;20997;-72
2023/01/05 13:32:19;;;;;;;10.10;3.03;;;13.30;99.90;;;;;;5055179;28;20480;-72
2023/01/05 13:35:39;;;;;;;7.57;2.83;;;13.40;99.90;;;;;;5055724;28;20397;-69
2023/01/05 13:38:24;;;;;;;8.40;2.97;;;13.40;99.90;;;;;;5051868;28;20443;-71